NCAR-RAP Real-Time Weather Data

Output produced by METARs form (20 January 2020  08:58 UTC)
found at http://weather.rap.ucar.edu/surface/
 
Conditions at: KIND observed 20 January 2020  07:54 UTC
Temperature: -9.4°C (15°F)
Dewpoint: -12.2°C (10°F) [RH = 80%]
Pressure (altimeter): 30.48 inches Hg (1032.3 mb)
[Sea-level pressure: 1033.5 mb]
Winds: from the W (280 degrees) at 9 MPH (8 knots; 4.2 m/s)
Visibility: 9 miles (14 km)
Ceiling: 1400 feet AGL
Clouds: overcast cloud deck at 1400 feet AGL
Present Weather: -SN  (light snow)
KIND 200754Z 28008KT 9SM -SN OVC014 M09/M12 A3048 RMK AO2 SLP335 P0000 T10941122